North Kingstown, RI (02852)

05:50 AM EDT die 30o August, anno 2015 (GMT -0400)
Stone Gate | | Change Station
CLOSE
Current Station
Personal Weather Stations
Location: North Kingstown, RI
Elevation: 110 ft
Nearby Weather Stations

Elev 110 ft 41.57 °N, 71.47 °W | Updated 5 seconds ago

Serena
Serena
65.7 °F
Feels Like 65.7 °F
N
0.0
Ventus Variabilis Ventus from Magis Zephyrus quam Auster
Gusts 0.0 mph

Hodie
High -- | Low -- °F
--% Chance of Precip.
Yesterday
High -- | Low -- °F
Precip. -- in
6:09 AM 7:22 PM
Waxing Gibbous, 99% visible
Pressio 30.08 in
Visibilitas 10.0 milia passuum
Clouds Serena
Frigus in quo Ros apparet 65 °F
Umor 97%
Rainfall 0.00 in
Snow Depth Not available.
UV 0.0 out of 12
Pollen 9.60 out of 12
Air Quality Not available.
Flu Activity Not available.
METAR KPVD 300851Z 23005KT 10SM CLR 19/17 A3008 RMK AO2 SLP185 T01940172 56008
Pressio 30.08 in
Visibilitas 10.0 milia passuum
Clouds Serena
Frigus in quo Ros apparet 65 °F
Umor 97%
Rainfall 0.00 in
Snow Depth Not available.
UV 0.0 out of 12
Pollen 9.60 out of 12
Air Quality Not available.
Flu Activity Not available.
METAR KPVD 300851Z 23005KT 10SM CLR 19/17 A3008 RMK AO2 SLP185 T01940172 56008

10-Day Weather Forecast

×

Almanac

Astronomy

Aug. 30, 2015 Rise Set
Actual Time
Civil Twilight
Nautical Twilight
Astronomical Twilight
Moon
Length Of Visible Light
Length of Day
Tomorrow will be .
, % of the Moon is Illuminated

Today's Extremes

State Highs State Lows

Community

WunderPhotos

Upload Photos

1,850,919 photos uploaded!

WunderBlogs® & News

Nearby

Air Quality

  Air Quality AQ Index Pollutant
Not available.

Snow Depth

Station Depth Elevation

Earthquake Activity

City Distance Mag. Time & Date
Minimum magnitude displayed is 2.5.

Coastal Water Temperatures

Locus Calor

Stations

Nearby Weather Stations

Station Location Temp Frigus Venti Frigus in quo Ros apparet Umor Ventus Precip. Elev Renovata Type